Prestations.

Choisissez la prestation de votre choix.

Initiation.

Évènement client.

Formations.

METAR :

LFQA 210100Z AUTO 00000KT CAVOK 08/04 Q1015


vue en direct sur l'aérodrome
mentions légales politique de confidentialité
Cochet Concept
cx